Time;durP1;ratioP1;P1;durP2;ratioP2;P2;SDS_P1;SDS_P2;PMS_P1;PMS_P2;Temp;Humidity;BMP_temperature;BMP_pressure;BME280_temperature;BME280_humidity;BME280_pressure;Samples;Min_cycle;Max_cycle;Signal;HPM_P1;HPM_P2
2022/07/09 00:00:33;;;;;;;;;;;;;;;20.67;51.27;101782.75;4974297;28;6919;-80
2022/07/09 00:02:58;;;;;;;;;;;;;;;20.62;51.40;101787.84;4935676;28;7458;-80
2022/07/09 00:05:24;;;;;;;;;;;;;;;20.58;51.23;101791.22;4982604;28;8026;-80
2022/07/09 00:07:50;;;;;;;;;;;;;;;20.53;51.28;101785.88;4974525;28;8476;-80
2022/07/09 00:10:15;;;;;;;;;;;;;;;20.45;51.67;101779.53;4975972;28;7324;-80
2022/07/09 00:12:41;;;;;;;;;;;;;;;20.40;51.43;101778.50;4981075;28;6929;-80
2022/07/09 00:15:07;;;;;;;;;;;;;;;20.35;51.58;101772.31;4950315;28;7832;-80
2022/07/09 00:17:33;;;;;;;;;;;;;;;20.30;51.66;101773.88;4937143;28;6979;-80
2022/07/09 00:19:59;;;;;;;;;;;;;;;20.26;51.80;101778.09;4962272;28;7247;-80
2022/07/09 00:22:24;;;;;;;;;;;;;;;20.23;52.27;101776.31;4965779;28;8483;-80
2022/07/09 00:24:50;;;;;;;;;;;;;;;20.20;52.21;101775.34;4949309;28;7000;-80
2022/07/09 00:27:16;;;;;;;;;;;;;;;20.19;52.42;101770.97;4976999;28;6767;-80
2022/07/09 00:29:41;;;;;;;;;;;;;;;20.15;52.62;101764.78;4967060;28;8528;-80
2022/07/09 00:32:07;;;;;;;;;;;;;;;20.14;52.71;101776.03;4953332;28;6972;-80
2022/07/09 00:34:33;;;;;;;;;;;;;;;20.13;53.03;101761.22;4965010;28;7018;-80
2022/07/09 00:37:00;;;;;;;;;;;;;;;20.14;53.06;101762.13;4948703;28;7027;-80
2022/07/09 00:39:26;;;;;;;;;;;;;;;20.15;53.05;101758.69;4935988;28;9396;-80
2022/07/09 00:42:06;;;;;;;;;;;;;;;20.13;52.76;101758.63;4979872;28;6999;-80
2022/07/09 00:44:32;;;;;;;;;;;;;;;20.15;52.93;101753.47;4955003;28;8451;-80
2022/07/09 00:46:58;;;;;;;;;;;;;;;20.12;52.79;101755.16;4946210;28;7003;-80
2022/07/09 00:49:30;;;;;;;;;;;;;;;20.11;52.44;101750.78;4966984;28;7065;-80
2022/07/09 00:51:57;;;;;;;;;;;;;;;20.11;52.89;101756.00;4949151;28;6984;-80
2022/07/09 00:54:24;;;;;;;;;;;;;;;20.10;52.92;101750.75;4961737;28;6804;-80
2022/07/09 00:56:53;;;;;;;;;;;;;;;20.09;52.95;101749.88;4965267;28;8419;-80
2022/07/09 00:59:22;;;;;;;;;;;;;;;20.10;52.80;101750.75;4983303;28;7092;-80
2022/07/09 01:01:51;;;;;;;;;;;;;;;20.07;52.90;101741.13;4947200;28;6804;-80
2022/07/09 01:04:17;;;;;;;;;;;;;;;20.06;52.99;101743.69;4933778;28;7237;-80
2022/07/09 01:06:43;;;;;;;;;;;;;;;20.05;53.05;101741.94;4962680;28;7450;-80
2022/07/09 01:09:09;;;;;;;;;;;;;;;20.03;52.88;101743.56;4950717;28;7053;-80
2022/07/09 01:11:36;;;;;;;;;;;;;;;20.01;53.35;101742.66;4983514;28;8329;-80
2022/07/09 01:14:02;;;;;;;;;;;;;;;20.00;53.32;101752.19;4940557;28;7320;-81
2022/07/09 01:16:37;;;;;;;;;;;;;;;20.00;53.51;101744.38;4979736;28;6968;-80
2022/07/09 01:19:04;;;;;;;;;;;;;;;20.02;53.14;101747.03;4938832;28;7298;-80
2022/07/09 01:21:30;;;;;;;;;;;;;;;20.02;53.11;101753.13;4978560;28;7185;-80
2022/07/09 01:23:56;;;;;;;;;;;;;;;20.00;52.88;101744.38;4952814;28;6998;-80
2022/07/09 01:26:24;;;;;;;;;;;;;;;19.97;53.07;101749.47;4974538;28;8209;-80
2022/07/09 01:28:50;;;;;;;;;;;;;;;19.95;52.72;101746.84;4970048;28;6999;-80
2022/07/09 01:31:16;;;;;;;;;;;;;;;19.93;52.79;101747.59;4952823;28;7390;-80
2022/07/09 01:33:42;;;;;;;;;;;;;;;19.89;52.60;101748.31;4984188;28;7233;-80
2022/07/09 01:36:08;;;;;;;;;;;;;;;19.85;52.76;101750.84;4937925;28;8463;-80
2022/07/09 01:38:34;;;;;;;;;;;;;;;19.80;52.61;101742.03;4956747;28;7444;-80
2022/07/09 01:41:00;;;;;;;;;;;;;;;19.78;53.15;101738.47;4981965;28;6989;-80
2022/07/09 01:43:26;;;;;;;;;;;;;;;19.75;53.59;101740.97;4961984;28;8413;-80
2022/07/09 01:45:51;;;;;;;;;;;;;;;19.73;53.26;101740.06;4962005;28;7228;-80
2022/07/09 01:48:18;;;;;;;;;;;;;;;19.70;54.11;101740.84;4980340;28;6942;-80
2022/07/09 01:50:43;;;;;;;;;;;;;;;19.69;54.10;101738.19;4942347;28;7135;-80
2022/07/09 01:53:09;;;;;;;;;;;;;;;19.69;53.94;101730.38;4974784;28;6963;-80
2022/07/09 01:55:35;;;;;;;;;;;;;;;19.70;53.91;101732.13;4952799;28;7152;-80
2022/07/09 01:58:01;;;;;;;;;;;;;;;19.68;53.95;101726.00;4950545;28;7002;-80
2022/07/09 02:00:28;;;;;;;;;;;;;;;19.68;53.99;101726.00;4953071;28;7154;-80
2022/07/09 02:02:54;;;;;;;;;;;;;;;19.67;53.70;101724.25;4979594;28;6981;-80
2022/07/09 02:05:21;;;;;;;;;;;;;;;19.66;53.52;101717.28;4955738;28;8516;-80
2022/07/09 02:07:47;;;;;;;;;;;;;;;19.65;53.66;101720.72;4968617;28;6985;-80
2022/07/09 02:10:13;;;;;;;;;;;;;;;19.64;53.96;101722.44;4954232;28;7199;-80
2022/07/09 02:12:39;;;;;;;;;;;;;;;19.61;53.42;101718.88;4934832;28;8030;-80
2022/07/09 02:15:07;;;;;;;;;;;;;;;19.58;53.81;101706.66;4980140;28;7037;-80
2022/07/09 02:17:32;;;;;;;;;;;;;;;19.57;54.11;101704.88;4964384;28;8555;-80
2022/07/09 02:19:58;;;;;;;;;;;;;;;19.55;54.04;101706.53;4954459;28;7220;-80
2022/07/09 02:22:24;;;;;;;;;;;;;;;19.52;53.58;101701.25;4952432;28;7287;-80
2022/07/09 02:24:50;;;;;;;;;;;;;;;19.50;53.81;101701.19;4968730;28;7819;-80
2022/07/09 02:27:15;;;;;;;;;;;;;;;19.50;54.19;101697.72;4980982;28;7252;-80
2022/07/09 02:29:41;;;;;;;;;;;;;;;19.50;53.91;101697.72;4964562;28;6946;-80
2022/07/09 02:32:09;;;;;;;;;;;;;;;19.49;53.87;101696.81;4967373;28;7305;-80
2022/07/09 02:34:34;;;;;;;;;;;;;;;19.49;53.90;101694.22;4960731;28;7284;-80
2022/07/09 02:37:00;;;;;;;;;;;;;;;19.51;54.17;101702.97;4980374;28;6779;-80
2022/07/09 02:39:26;;;;;;;;;;;;;;;19.48;53.85;101692.47;4961668;28;8345;-78
2022/07/09 02:41:52;;;;;;;;;;;;;;;19.48;53.65;101699.41;4973672;28;6776;-78
2022/07/09 02:44:17;;;;;;;;;;;;;;;19.46;54.02;101699.34;4951075;28;6948;-79
2022/07/09 02:46:43;;;;;;;;;;;;;;;19.42;54.07;101703.56;4951087;28;6968;-79
2022/07/09 02:49:10;;;;;;;;;;;;;;;19.41;54.28;101700.88;4950440;28;6968;-79
2022/07/09 02:51:36;;;;;;;;;;;;;;;19.37;54.62;101699.03;4973820;28;7277;-78
2022/07/09 02:54:01;;;;;;;;;;;;;;;19.37;54.94;101704.25;4951292;28;6960;-78
2022/07/09 02:56:27;;;;;;;;;;;;;;;19.37;54.82;101707.75;4952575;28;8637;-79
2022/07/09 02:58:53;;;;;;;;;;;;;;;19.38;54.96;101700.81;4961564;28;6776;-79
2022/07/09 03:01:18;;;;;;;;;;;;;;;19.38;54.47;101706.00;4956979;28;7326;-79
2022/07/09 03:03:44;;;;;;;;;;;;;;;19.36;54.53;101708.56;4941510;28;7242;-79
2022/07/09 03:06:09;;;;;;;;;;;;;;;19.34;54.55;101696.34;4968486;28;6768;-78
2022/07/09 03:08:35;;;;;;;;;;;;;;;19.34;55.11;101704.16;4961940;28;7383;-79
2022/07/09 03:11:01;;;;;;;;;;;;;;;19.31;54.63;101697.13;4971510;28;7132;-78
2022/07/09 03:13:26;;;;;;;;;;;;;;;19.30;54.59;101700.56;4967766;28;7205;-78
2022/07/09 03:15:52;;;;;;;;;;;;;;;19.27;54.58;101698.75;4967589;28;8545;-78
2022/07/09 03:18:18;;;;;;;;;;;;;;;19.27;54.58;101701.34;4958103;28;7235;-79
2022/07/09 03:20:43;;;;;;;;;;;;;;;19.26;54.81;101696.06;4954311;28;7448;-79
2022/07/09 03:23:09;;;;;;;;;;;;;;;19.24;55.09;101696.06;4948552;28;6966;-79
2022/07/09 03:25:34;;;;;;;;;;;;;;;19.23;54.78;101702.09;4933526;28;7098;-79
2022/07/09 03:28:00;;;;;;;;;;;;;;;19.19;54.55;101700.19;4944771;28;6840;-78
2022/07/09 03:30:26;;;;;;;;;;;;;;;19.17;54.55;101701.88;4971551;28;6980;-79
2022/07/09 03:32:51;;;;;;;;;;;;;;;19.13;54.89;101695.69;4967136;28;6957;-79
2022/07/09 03:35:17;;;;;;;;;;;;;;;19.13;54.70;101702.63;4933951;28;6963;-78
2022/07/09 03:37:44;;;;;;;;;;;;;;;19.09;55.24;101703.31;4931209;28;8098;-79
2022/07/09 03:40:10;;;;;;;;;;;;;;;19.09;55.31;101708.53;4975360;28;7245;-78
2022/07/09 03:42:36;;;;;;;;;;;;;;;19.05;55.21;101702.34;4950708;28;6949;-79
2022/07/09 03:45:01;;;;;;;;;;;;;;;19.02;55.27;101694.44;4946295;28;6906;-78
2022/07/09 03:47:27;;;;;;;;;;;;;;;19.00;55.40;101701.28;4959011;28;6872;-78
2022/07/09 03:49:53;;;;;;;;;;;;;;;18.99;55.41;101700.38;4963064;28;8425;-78
2022/07/09 03:52:18;;;;;;;;;;;;;;;18.98;55.41;101701.22;4973568;28;7112;-78
2022/07/09 03:54:44;;;;;;;;;;;;;;;18.96;55.72;101700.28;4973019;28;9394;-78
2022/07/09 03:57:11;;;;;;;;;;;;;;;18.97;55.10;101699.44;4947744;28;6966;-75
2022/07/09 03:59:37;;;;;;;;;;;;;;;18.99;55.98;101696.91;4951967;28;6780;-75
2022/07/09 04:02:04;;;;;;;;;;;;;;;19.01;55.98;101693.56;4954730;28;6826;-76
2022/07/09 04:04:29;;;;;;;;;;;;;;;19.04;55.72;101694.50;4977321;28;7149;-76
2022/07/09 04:06:55;;;;;;;;;;;;;;;19.08;56.07;101698.97;4964676;28;7296;-76
2022/07/09 04:09:21;;;;;;;;;;;;;;;19.12;56.46;101693.03;4961107;28;6941;-76
2022/07/09 04:11:47;;;;;;;;;;;;;;;19.17;56.07;101701.88;4972618;28;7071;-76
2022/07/09 04:14:14;;;;;;;;;;;;;;;19.23;56.56;101689.09;4975392;28;6899;-76
2022/07/09 04:16:40;;;;;;;;;;;;;;;19.26;55.83;101690.88;4941886;28;6792;-76
2022/07/09 04:19:06;;;;;;;;;;;;;;;19.30;55.87;101695.38;4973029;28;7099;-76
2022/07/09 04:21:32;;;;;;;;;;;;;;;19.35;56.30;101700.72;4955731;28;8422;-75
2022/07/09 04:23:58;;;;;;;;;;;;;;;19.40;56.44;101704.31;4974007;28;6948;-76
2022/07/09 04:26:24;;;;;;;;;;;;;;;19.59;56.97;101703.22;4957789;28;8561;-77
2022/07/09 04:28:49;;;;;;;;;;;;;;;19.83;57.06;101694.38;4955844;28;6986;-77
2022/07/09 04:31:16;;;;;;;;;;;;;;;20.15;57.56;101709.25;4932384;28;8611;-76
2022/07/09 04:33:43;;;;;;;;;;;;;;;20.52;57.87;101697.28;4953061;28;8850;-76
2022/07/09 04:36:09;;;;;;;;;;;;;;;20.90;57.42;101699.16;4956753;28;8448;-76
2022/07/09 04:38:34;;;;;;;;;;;;;;;21.27;57.21;101701.81;4969262;28;7192;-76
2022/07/09 04:41:00;;;;;;;;;;;;;;;21.64;56.56;101702.69;4957272;28;6789;-76
2022/07/09 04:43:26;;;;;;;;;;;;;;;22.00;55.33;101701.75;4956058;28;6872;-76
2022/07/09 04:45:52;;;;;;;;;;;;;;;22.36;55.56;101696.41;4946561;28;7205;-76
2022/07/09 04:48:17;;;;;;;;;;;;;;;22.68;54.66;101697.03;4974793;28;7173;-76
2022/07/09 04:50:43;;;;;;;;;;;;;;;23.00;54.13;101701.94;4972028;28;6965;-76
2022/07/09 04:53:09;;;;;;;;;;;;;;;23.23;52.66;101695.34;4961269;28;6966;-76
2022/07/09 04:55:34;;;;;;;;;;;;;;;23.37;51.85;101699.09;4959326;28;7410;-77
2022/07/09 04:58:00;;;;;;;;;;;;;;;23.44;51.60;101694.84;4972813;28;6951;-76
2022/07/09 05:00:26;;;;;;;;;;;;;;;23.51;51.29;101694.06;4954019;28;7136;-76
2022/07/09 05:02:51;;;;;;;;;;;;;;;23.62;51.42;101698.59;4945838;28;6764;-76
2022/07/09 05:05:21;;;;;;;;;;;;;;;23.80;51.25;101695.34;4943144;28;7824;-76
2022/07/09 05:07:47;;;;;;;;;;;;;;;23.99;50.91;101697.34;4976273;28;7018;-76
2022/07/09 05:10:13;;;;;;;;;;;;;;;24.20;50.44;101697.63;4949938;28;6788;-76
2022/07/09 05:12:40;;;;;;;;;;;;;;;24.38;50.54;101695.19;4950178;28;7037;-77
2022/07/09 05:15:06;;;;;;;;;;;;;;;24.62;50.12;101698.06;4961555;28;8430;-76
2022/07/09 05:17:37;;;;;;;;;;;;;;;24.88;50.00;101695.75;4954374;28;6808;-76
2022/07/09 05:20:05;;;;;;;;;;;;;;;25.12;48.93;101703.81;4928742;28;7193;-76
2022/07/09 05:22:33;;;;;;;;;;;;;;;25.30;48.40;101690.84;4933803;28;7264;-76
2022/07/09 05:24:59;;;;;;;;;;;;;;;25.45;47.75;101697.03;4974896;28;8526;-76
2022/07/09 05:27:28;;;;;;;;;;;;;;;25.58;46.95;101700.66;4943360;28;6788;-76
2022/07/09 05:29:54;;;;;;;;;;;;;;;25.70;47.52;101694.59;4965235;28;7227;-76
2022/07/09 05:32:19;;;;;;;;;;;;;;;25.88;47.33;101707.84;4947557;28;7194;-77
2022/07/09 05:34:46;;;;;;;;;;;;;;;26.09;47.41;101706.16;4950181;28;6810;-77
2022/07/09 05:37:11;;;;;;;;;;;;;;;26.34;47.05;101696.66;4978154;28;6982;-76
2022/07/09 05:39:38;;;;;;;;;;;;;;;26.61;46.61;101699.31;4979041;28;7292;-76
2022/07/09 05:42:04;;;;;;;;;;;;;;;26.83;45.72;101694.97;4952840;28;7150;-76
2022/07/09 05:44:30;;;;;;;;;;;;;;;27.00;45.57;101692.38;4946755;28;6954;-76
2022/07/09 05:46:56;;;;;;;;;;;;;;;27.14;44.80;101683.63;4963290;28;6784;-76
2022/07/09 05:49:22;;;;;;;;;;;;;;;27.26;45.14;101688.84;4959775;28;6760;-76
2022/07/09 05:51:47;;;;;;;;;;;;;;;27.40;44.13;101680.94;4967358;28;6980;-76
2022/07/09 05:54:14;;;;;;;;;;;;;;;27.51;44.06;101685.28;4976751;28;7348;-76
2022/07/09 05:56:41;;;;;;;;;;;;;;;27.56;43.25;101673.00;4944516;28;7043;-76
2022/07/09 05:59:07;;;;;;;;;;;;;;;27.53;42.95;101668.63;4962277;28;6794;-76
2022/07/09 06:01:33;;;;;;;;;;;;;;;27.42;42.80;101673.00;4977488;28;7166;-76
2022/07/09 06:03:58;;;;;;;;;;;;;;;27.24;42.86;101680.09;4955485;28;8035;-76
2022/07/09 06:06:24;;;;;;;;;;;;;;;27.00;43.07;101673.97;4974671;28;7143;-76
2022/07/09 06:08:50;;;;;;;;;;;;;;;26.80;43.21;101678.31;4946658;28;7183;-76
2022/07/09 06:11:16;;;;;;;;;;;;;;;26.55;43.13;101678.28;4949273;28;7697;-76
2022/07/09 06:13:42;;;;;;;;;;;;;;;26.30;43.43;101675.63;4965619;28;7222;-76
2022/07/09 06:16:07;;;;;;;;;;;;;;;26.05;43.37;101671.13;4960704;28;6957;-76
2022/07/09 06:18:33;;;;;;;;;;;;;;;25.81;44.10;101665.75;4981180;28;7193;-76
2022/07/09 06:21:00;;;;;;;;;;;;;;;25.60;45.15;101670.03;4949721;28;6972;-77
2022/07/09 06:23:26;;;;;;;;;;;;;;;25.43;45.01;101670.78;4955824;28;8222;-76
2022/07/09 06:25:53;;;;;;;;;;;;;;;25.31;45.76;101670.72;4976987;28;7135;-76
2022/07/09 06:28:19;;;;;;;;;;;;;;;25.21;45.97;101675.88;4938105;28;7036;-76
2022/07/09 06:30:45;;;;;;;;;;;;;;;25.16;46.55;101676.72;4962568;28;6776;-76
2022/07/09 06:33:10;;;;;;;;;;;;;;;25.12;46.63;101682.81;4975774;28;6982;-76
2022/07/09 06:35:36;;;;;;;;;;;;;;;25.07;46.22;101675.78;4949779;28;6954;-76
2022/07/09 06:38:01;;;;;;;;;;;;;;;25.02;46.36;101672.25;4943603;28;7275;-75
2022/07/09 06:40:27;;;;;;;;;;;;;;;25.01;47.03;101678.34;4974828;28;6827;-76
2022/07/09 06:42:53;;;;;;;;;;;;;;;24.98;46.58;101672.22;4963032;28;7404;-76
2022/07/09 06:45:19;;;;;;;;;;;;;;;24.94;46.69;101680.03;4956889;28;8547;-75
2022/07/09 06:47:44;;;;;;;;;;;;;;;24.90;47.04;101675.66;4963194;28;6821;-76
2022/07/09 06:50:10;;;;;;;;;;;;;;;24.87;47.39;101670.41;4961647;28;6784;-76
2022/07/09 06:52:36;;;;;;;;;;;;;;;24.86;47.46;101676.47;4947263;28;7167;-76
2022/07/09 06:55:02;;;;;;;;;;;;;;;24.86;48.13;101676.47;4973778;28;6950;-75
2022/07/09 06:57:29;;;;;;;;;;;;;;;24.92;48.58;101676.53;4944671;28;6780;-75
2022/07/09 06:59:55;;;;;;;;;;;;;;;25.00;48.18;101679.22;4958675;28;7102;-75
2022/07/09 07:02:20;;;;;;;;;;;;;;;25.12;48.25;101672.34;4976719;28;8701;-76
2022/07/09 07:04:46;;;;;;;;;;;;;;;25.37;48.53;101682.13;4960022;28;8166;-75
2022/07/09 07:07:11;;;;;;;;;;;;;;;25.75;48.71;101675.38;4942281;28;7177;-75
2022/07/09 07:09:37;;;;;;;;;;;;;;;26.19;48.52;101676.47;4955493;28;7136;-76
2022/07/09 07:12:03;;;;;;;;;;;;;;;26.56;47.00;101674.81;4939736;28;8944;-75
2022/07/09 07:14:29;;;;;;;;;;;;;;;26.83;46.43;101684.44;4974368;28;7034;-76
2022/07/09 07:16:55;;;;;;;;;;;;;;;27.03;45.94;101671.31;4948375;28;7021;-75
2022/07/09 07:19:21;;;;;;;;;;;;;;;27.21;45.03;101669.53;4958003;28;7351;-75
2022/07/09 07:21:48;;;;;;;;;;;;;;;27.41;44.74;101669.53;4925649;28;7023;-75
2022/07/09 07:24:13;;;;;;;;;;;;;;;27.73;43.83;101668.56;4949195;28;6796;-75
2022/07/09 07:26:39;;;;;;;;;;;;;;;28.10;43.89;101667.56;4957480;28;6950;-75
2022/07/09 07:29:05;;;;;;;;;;;;;;;28.44;43.17;101661.19;4941157;28;6952;-75
2022/07/09 07:31:31;;;;;;;;;;;;;;;28.75;42.50;101668.03;4958877;28;7418;-76
2022/07/09 07:33:59;;;;;;;;;;;;;;;29.04;41.27;101669.56;4930507;28;6967;-75
2022/07/09 07:36:25;;;;;;;;;;;;;;;29.17;40.39;101671.22;4956856;28;7050;-76
2022/07/09 07:38:51;;;;;;;;;;;;;;;29.28;39.96;101670.22;4971033;28;7007;-75
2022/07/09 07:41:18;;;;;;;;;;;;;;;29.28;39.00;101676.34;4973398;28;7291;-75
2022/07/09 07:43:45;;;;;;;;;;;;;;;29.32;39.68;101677.22;4965765;28;6792;-75
2022/07/09 07:46:11;;;;;;;;;;;;;;;29.42;39.89;101678.84;4962873;28;6974;-75
2022/07/09 07:48:37;;;;;;;;;;;;;;;29.55;39.44;101676.09;4975196;28;7234;-75
2022/07/09 07:51:03;;;;;;;;;;;;;;;29.60;39.22;101666.38;4973150;28;6776;-75
2022/07/09 07:53:33;;;;;;;;;;;;;;;29.65;38.76;101667.22;4963772;28;7056;-76
2022/07/09 07:56:04;;;;;;;;;;;;;;;29.70;38.24;101664.47;4939981;28;7963;-75
2022/07/09 07:58:29;;;;;;;;;;;;;;;29.73;38.44;101659.19;4927746;28;7157;-76
2022/07/09 08:00:55;;;;;;;;;;;;;;;29.88;38.77;101660.75;4949137;28;6834;-75
2022/07/09 08:03:21;;;;;;;;;;;;;;;30.12;38.02;101654.28;4970921;28;6960;-75
2022/07/09 08:05:47;;;;;;;;;;;;;;;30.33;38.68;101658.41;4929006;28;6815;-76
2022/07/09 08:08:18;;;;;;;;;;;;;;;30.66;38.52;101649.09;4948809;28;7002;-77
2022/07/09 08:10:45;;;;;;;;;;;;;;;31.06;37.19;101636.94;4948719;28;9089;-77
2022/07/09 08:13:12;;;;;;;;;;;;;;;31.36;36.51;101643.44;4957290;28;8729;-77
2022/07/09 08:15:38;;;;;;;;;;;;;;;31.64;35.89;101642.03;4974731;28;7341;-76
2022/07/09 08:18:04;;;;;;;;;;;;;;;31.88;35.79;101623.88;4950394;28;6780;-77
2022/07/09 08:20:30;;;;;;;;;;;;;;;32.12;35.54;101631.28;4969919;28;8077;-75
2022/07/09 08:22:55;;;;;;;;;;;;;;;32.40;35.11;101632.41;4947317;28;7235;-76
2022/07/09 08:25:21;;;;;;;;;;;;;;;32.63;34.34;101638.91;4957490;28;6783;-75
2022/07/09 08:27:49;;;;;;;;;;;;;;;32.81;33.94;101633.13;4971728;28;7144;-77
2022/07/09 08:30:15;;;;;;;;;;;;;;;32.97;33.57;101643.41;4963595;28;6824;-75
2022/07/09 08:32:40;;;;;;;;;;;;;;;33.18;33.19;101644.59;4968659;28;7279;-74
2022/07/09 08:35:07;;;;;;;;;;;;;;;33.57;33.08;101637.34;4955062;28;6780;-75
2022/07/09 08:37:32;;;;;;;;;;;;;;;33.97;32.26;101637.91;4959514;28;7245;-75
2022/07/09 08:40:00;;;;;;;;;;;;;;;34.05;31.71;101638.56;4959831;28;6878;-74
2022/07/09 08:42:28;;;;;;;;;;;;;;;33.98;30.77;101642.31;4953541;28;7031;-75
2022/07/09 08:44:54;;;;;;;;;;;;;;;33.81;31.09;101638.41;4970140;28;7434;-75
2022/07/09 08:47:21;;;;;;;;;;;;;;;33.63;31.03;101634.50;4962634;28;7211;-75
2022/07/09 08:49:48;;;;;;;;;;;;;;;33.44;30.96;101631.50;4973209;28;6800;-74
2022/07/09 08:52:15;;;;;;;;;;;;;;;33.09;30.45;101635.09;4949544;28;7268;-74
2022/07/09 08:54:44;;;;;;;;;;;;;;;32.62;30.29;101638.06;4975377;28;7208;-74
2022/07/09 08:57:09;;;;;;;;;;;;;;;32.13;30.63;101626.81;4951128;28;7786;-74
2022/07/09 08:59:35;;;;;;;;;;;;;;;31.78;31.31;101623.19;4928140;28;7231;-74
2022/07/09 09:02:09;;;;;;;;;;;;;;;31.71;32.09;101619.78;4933526;28;7226;-74
2022/07/09 09:04:39;;;;;;;;;;;;;;;31.99;32.25;101617.44;4938069;28;6979;-74
2022/07/09 09:07:21;;;;;;;;;;;;;;;32.47;32.84;101609.25;4974076;28;6820;-74
2022/07/09 09:09:48;;;;;;;;;;;;;;;33.08;31.93;101612.09;4950767;28;7512;-74
2022/07/09 09:12:14;;;;;;;;;;;;;;;33.75;31.72;101601.38;4953402;28;7149;-74
2022/07/09 09:14:49;;;;;;;;;;;;;;;34.49;30.09;101588.38;4962209;28;7139;-75
2022/07/09 09:17:15;;;;;;;;;;;;;;;35.11;29.06;101579.16;4925707;28;6987;-75
2022/07/09 09:19:41;;;;;;;;;;;;;;;35.65;28.97;101584.28;4969976;28;8304;-75
2022/07/09 09:22:08;;;;;;;;;;;;;;;36.05;28.17;101577.31;4974386;28;6784;-75
2022/07/09 09:24:34;;;;;;;;;;;;;;;36.28;27.98;101580.84;4954345;28;6784;-75
2022/07/09 09:27:01;;;;;;;;;;;;;;;36.55;27.39;101581.47;4965089;28;7165;-75
2022/07/09 09:29:28;;;;;;;;;;;;;;;36.69;27.18;101582.69;4945932;28;7303;-75
2022/07/09 09:31:56;;;;;;;;;;;;;;;36.72;27.13;101569.19;4978962;28;6788;-75
2022/07/09 09:34:24;;;;;;;;;;;;;;;36.92;27.37;101565.66;4957188;28;7249;-75
2022/07/09 09:36:52;;;;;;;;;;;;;;;37.40;26.95;101567.06;4952538;28;7157;-74
2022/07/09 09:39:19;;;;;;;;;;;;;;;37.82;25.92;101570.44;4928599;28;7300;-74
2022/07/09 09:41:54;;;;;;;;;;;;;;;37.83;25.78;101566.81;4976161;28;7130;-74
2022/07/09 09:44:25;;;;;;;;;;;;;;;37.68;25.92;101563.97;4954120;28;7361;-75
2022/07/09 09:46:53;;;;;;;;;;;;;;;37.43;26.00;101573.13;4961990;28;6819;-75
2022/07/09 09:49:19;;;;;;;;;;;;;;;37.33;25.68;101574.50;4951440;28;6984;-75
2022/07/09 09:51:54;;;;;;;;;;;;;;;37.15;26.03;101561.06;4960736;28;7002;-75
2022/07/09 09:54:21;;;;;;;;;;;;;;;36.90;26.02;101564.84;4959770;28;7220;-75
2022/07/09 09:56:49;;;;;;;;;;;;;;;36.65;25.47;101555.25;4955061;28;7296;-75
2022/07/09 09:59:16;;;;;;;;;;;;;;;36.47;25.87;101545.34;4960499;28;7258;-75
2022/07/09 10:01:44;;;;;;;;;;;;;;;36.35;25.98;101547.63;4949873;28;6979;-75
2022/07/09 10:04:13;;;;;;;;;;;;;;;36.37;25.71;101540.41;4972828;28;6780;-75
2022/07/09 10:06:39;;;;;;;;;;;;;;;36.51;26.21;101541.63;4946045;28;7007;-75
2022/07/09 10:09:07;;;;;;;;;;;;;;;36.73;26.42;101541.56;4964044;28;7586;-75
2022/07/09 10:11:45;;;;;;;;;;;;;;;37.17;26.24;101547.66;4944915;28;7320;-75
2022/07/09 10:14:34;;;;;;;;;;;;;;;37.33;25.45;101539.78;4944117;28;7156;-75
2022/07/09 10:17:15;;;;;;;;;;;;;;;37.03;25.37;101537.56;4947787;28;6971;-75
2022/07/09 10:20:01;;;;;;;;;;;;;;;36.53;26.30;101537.94;4968640;28;8944;-75
2022/07/09 10:22:36;;;;;;;;;;;;;;;36.01;26.78;101538.34;4974701;28;6836;-75
2022/07/09 10:25:02;;;;;;;;;;;;;;;35.54;26.74;101542.88;4975135;28;6964;-75
2022/07/09 10:27:28;;;;;;;;;;;;;;;35.07;27.29;101542.94;4978693;28;6816;-76
2022/07/09 10:29:58;;;;;;;;;;;;;;;34.60;27.52;101547.22;4963636;28;7112;-76
2022/07/09 10:32:32;;;;;;;;;;;;;;;34.18;28.25;101549.47;4980711;28;6808;-76
2022/07/09 10:35:05;;;;;;;;;;;;;;;33.86;28.80;101554.03;4951257;28;7103;-75
2022/07/09 10:37:45;;;;;;;;;;;;;;;33.46;28.94;101552.59;4967556;28;7077;-76
2022/07/09 10:40:15;;;;;;;;;;;;;;;33.10;29.34;101551.84;4939933;28;6868;-75
2022/07/09 10:42:44;;;;;;;;;;;;;;;32.80;29.94;101542.97;4964961;28;6968;-75
2022/07/09 10:45:42;;;;;;;;;;;;;;;32.53;30.07;101551.59;4962958;28;7328;-76
2022/07/09 10:48:11;;;;;;;;;;;;;;;32.31;30.43;101545.97;4935058;28;6998;-75
2022/07/09 10:50:40;;;;;;;;;;;;;;;32.35;30.76;101536.13;4979275;28;7275;-75
2022/07/09 10:53:07;;;;;;;;;;;;;;;32.33;31.00;101527.34;4951569;28;8535;-75
2022/07/09 10:55:34;;;;;;;;;;;;;;;32.25;31.21;101525.75;4945796;28;7405;-75
2022/07/09 10:58:02;;;;;;;;;;;;;;;32.53;31.77;101519.78;4963081;28;6989;-76
2022/07/09 11:00:30;;;;;;;;;;;;;;;33.23;31.87;101519.66;4977842;28;7202;-75
2022/07/09 11:02:58;;;;;;;;;;;;;;;34.14;31.13;101502.66;4952977;28;6788;-75
2022/07/09 11:05:29;;;;;;;;;;;;;;;34.93;29.22;101506.97;4959332;28;7451;-76
2022/07/09 11:08:06;;;;;;;;;;;;;;;35.10;29.03;101510.84;4963084;28;6962;-75
2022/07/09 11:10:36;;;;;;;;;;;;;;;34.80;28.70;101511.03;4949653;28;6972;-75
2022/07/09 11:13:06;;;;;;;;;;;;;;;34.31;28.73;101514.50;4966007;28;6800;-75
2022/07/09 11:15:33;;;;;;;;;;;;;;;33.71;29.46;101514.69;4978847;28;7306;-75
2022/07/09 11:18:13;;;;;;;;;;;;;;;33.06;29.34;101510.38;4962028;28;7070;-76
2022/07/09 11:20:45;;;;;;;;;;;;;;;32.44;29.95;101506.75;4977268;28;6795;-74
2022/07/09 11:23:16;;;;;;;;;;;;;;;31.99;30.63;101518.47;4949606;28;7191;-76
2022/07/09 11:25:43;;;;;;;;;;;;;;;31.86;31.47;101497.56;4955121;28;7889;-76
2022/07/09 11:28:23;;;;;;;;;;;;;;;31.97;31.27;101499.97;4953338;28;7174;-76
2022/07/09 11:31:04;;;;;;;;;;;;;;;32.07;31.55;101490.00;4936916;28;7264;-76
2022/07/09 11:36:19;;;;;;;;;;;;;;;31.99;31.53;101505.22;4973340;28;6796;-75
2022/07/09 11:38:53;;;;;;;;;;;;;;;32.07;32.38;101500.59;4976273;28;6832;-75
2022/07/09 11:41:19;;;;;;;;;;;;;;;32.29;32.13;101505.34;4952691;28;7142;-76
2022/07/09 11:43:49;;;;;;;;;;;;;;;32.47;31.93;101503.16;4936028;28;6991;-75
2022/07/09 11:46:20;;;;;;;;;;;;;;;32.54;31.57;101491.47;4932327;28;8071;-76
2022/07/09 11:48:53;;;;;;;;;;;;;;;32.53;31.39;101485.28;4948902;28;7223;-76
2022/07/09 11:51:31;;;;;;;;;;;;;;;32.51;31.42;101489.75;4960469;28;7378;-76
2022/07/09 11:53:57;;;;;;;;;;;;;;;32.58;31.55;101481.66;4942075;28;6796;-76
2022/07/09 11:56:22;;;;;;;;;;;;;;;32.62;31.24;101480.63;4949470;28;6967;-76
2022/07/09 11:58:53;;;;;;;;;;;;;;;32.56;31.93;101473.72;4976034;28;7215;-76
2022/07/09 12:01:19;;;;;;;;;;;;;;;32.43;31.83;101470.53;4950716;28;6804;-75
2022/07/09 12:03:49;;;;;;;;;;;;;;;32.30;32.02;101469.09;4976502;28;7280;-76
2022/07/09 12:06:16;;;;;;;;;;;;;;;32.32;32.37;101459.31;4966866;28;6976;-76
2022/07/09 12:08:42;;;;;;;;;;;;;;;32.72;32.42;101465.34;4976608;28;6860;-76
2022/07/09 12:11:08;;;;;;;;;;;;;;;33.23;31.23;101466.53;4980332;28;6959;-76
2022/07/09 12:13:33;;;;;;;;;;;;;;;33.62;30.97;101458.25;4952491;28;6969;-76
2022/07/09 12:15:59;;;;;;;;;;;;;;;33.86;30.45;101455.69;4954231;28;7216;-76
2022/07/09 12:18:25;;;;;;;;;;;;;;;33.79;30.06;101446.16;4965908;28;6792;-75
2022/07/09 12:20:51;;;;;;;;;;;;;;;33.48;30.10;101457.81;4963852;28;6932;-76
2022/07/09 12:23:16;;;;;;;;;;;;;;;33.05;30.33;101450.25;4968960;28;7217;-76
2022/07/09 12:25:42;;;;;;;;;;;;;;;32.61;30.70;101457.69;4944399;28;6823;-76
2022/07/09 12:28:08;;;;;;;;;;;;;;;32.13;30.81;101449.19;4970537;28;6959;-75
2022/07/09 12:30:33;;;;;;;;;;;;;;;31.68;31.53;101450.28;4960720;28;6972;-76
2022/07/09 12:32:59;;;;;;;;;;;;;;;31.26;32.44;101449.47;4975235;28;7183;-76
2022/07/09 12:35:26;;;;;;;;;;;;;;;30.87;32.54;101450.25;4963730;28;7308;-75
2022/07/09 12:37:56;;;;;;;;;;;;;;;30.49;33.05;101446.56;4947053;28;7154;-75
2022/07/09 12:40:21;;;;;;;;;;;;;;;30.10;33.23;101457.84;4965903;28;6808;-75
2022/07/09 12:42:47;;;;;;;;;;;;;;;29.69;34.37;101454.97;4954349;28;8546;-79
2022/07/09 12:45:13;;;;;;;;;;;;;;;29.34;35.10;101466.88;4962337;28;6963;-79
2022/07/09 12:47:38;;;;;;;;;;;;;;;29.03;35.16;101472.56;4949146;28;7011;-79
2022/07/09 12:50:06;;;;;;;;;;;;;;;28.68;36.36;101470.28;4951695;28;7036;-77